Finley, Washington
Current Conditions -  °F | °C
As of 7:53 AM on Thursday 30 Oct 2014 (Local Time) from KPSC Reporting Station
Light Rain Light Rain  
Wind Chill: 11°   Ceiling: 9500
Heat Index: 11°   Visibility: 10mi
Dew Point: 10°   Wind: 3mph
Humidity: 96%   Direction: 290°WNW
Pressure: 30.07"   Gusts: NA
Location:  46.2117°N, 119.173°W
Report Text: KPSC 301453Z 29003KT 10SM -RA BKN095 OVC110 11/10 A3007 RMK AO2 SLP182 P0000 60000 T01060100 56007
Loading
Personal Weather Stations






























Interactive Weather Map
Tropical Storm Tracking
New forecast layout! Learn more

10-Day Weather Forecast

Advertisements
Track Severe Weather on mobile